sensor_id;sensor_type;location;lat;lon;timestamp;temperature;humidity
11489;DHT22;5801;50.804;12.638;2022-09-09T00:14:50;12.00;99.90
11489;DHT22;5801;50.804;12.638;2022-09-09T00:20:05;12.10;99.90
11489;DHT22;5801;50.804;12.638;2022-09-09T00:25:12;12.20;99.90
11489;DHT22;5801;50.804;12.638;2022-09-09T00:27:46;12.30;99.90
11489;DHT22;5801;50.804;12.638;2022-09-09T00:35:22;12.50;99.90
11489;DHT22;5801;50.804;12.638;2022-09-09T00:40:32;12.80;99.90
11489;DHT22;5801;50.804;12.638;2022-09-09T00:48:11;13.00;99.90
11489;DHT22;5801;50.804;12.638;2022-09-09T00:50:46;13.00;99.90
11489;DHT22;5801;50.804;12.638;2022-09-09T01:19:03;12.80;99.90
11489;DHT22;5801;50.804;12.638;2022-09-09T01:24:20;12.40;99.90
11489;DHT22;5801;50.804;12.638;2022-09-09T01:29:17;12.30;99.90
11489;DHT22;5801;50.804;12.638;2022-09-09T01:31:56;12.20;99.90
11489;DHT22;5801;50.804;12.638;2022-09-09T01:37:07;12.20;99.90
11489;DHT22;5801;50.804;12.638;2022-09-09T01:51:49;12.40;99.90
11489;DHT22;5801;50.804;12.638;2022-09-09T01:59:31;12.70;99.90
11489;DHT22;5801;50.804;12.638;2022-09-09T02:09:29;13.00;99.90
11489;DHT22;5801;50.804;12.638;2022-09-09T02:27:09;12.70;99.90
11489;DHT22;5801;50.804;12.638;2022-09-09T02:32:06;12.60;99.90
11489;DHT22;5801;50.804;12.638;2022-09-09T02:34:36;12.60;99.90
11489;DHT22;5801;50.804;12.638;2022-09-09T02:41:58;12.30;99.90
11489;DHT22;5801;50.804;12.638;2022-09-09T02:44:24;12.40;99.90
11489;DHT22;5801;50.804;12.638;2022-09-09T02:54:35;12.60;99.90
11489;DHT22;5801;50.804;12.638;2022-09-09T03:06:51;12.40;99.90
11489;DHT22;5801;50.804;12.638;2022-09-09T03:14:08;12.10;99.90
11489;DHT22;5801;50.804;12.638;2022-09-09T03:21:28;12.30;99.90
11489;DHT22;5801;50.804;12.638;2022-09-09T03:23:54;12.30;99.90
11489;DHT22;5801;50.804;12.638;2022-09-09T03:26:20;12.00;99.90
11489;DHT22;5801;50.804;12.638;2022-09-09T03:36:05;12.10;99.90
11489;DHT22;5801;50.804;12.638;2022-09-09T03:38:31;13.10;99.90
11489;DHT22;5801;50.804;12.638;2022-09-09T03:48:18;12.20;99.90
11489;DHT22;5801;50.804;12.638;2022-09-09T03:50:45;12.10;99.90
11489;DHT22;5801;50.804;12.638;2022-09-09T03:58:03;12.00;99.90
11489;DHT22;5801;50.804;12.638;2022-09-09T04:12:42;12.00;99.90
11489;DHT22;5801;50.804;12.638;2022-09-09T04:24:53;12.40;99.90
11489;DHT22;5801;50.804;12.638;2022-09-09T04:29:44;11.90;99.90
11489;DHT22;5801;50.804;12.638;2022-09-09T04:51:38;12.30;99.90
11489;DHT22;5801;50.804;12.638;2022-09-09T05:03:50;12.90;99.90
11489;DHT22;5801;50.804;12.638;2022-09-09T05:13:50;12.70;99.90
11489;DHT22;5801;50.804;12.638;2022-09-09T05:33:29;13.50;99.90
11489;DHT22;5801;50.804;12.638;2022-09-09T05:35:56;13.60;99.90
11489;DHT22;5801;50.804;12.638;2022-09-09T06:05:17;14.90;99.90
11489;DHT22;5801;50.804;12.638;2022-09-09T06:12:35;15.10;99.90
11489;DHT22;5801;50.804;12.638;2022-09-09T06:19:53;15.20;99.90
11489;DHT22;5801;50.804;12.638;2022-09-09T06:24:44;15.20;99.90
11489;DHT22;5801;50.804;12.638;2022-09-09T06:32:03;15.50;99.90
11489;DHT22;5801;50.804;12.638;2022-09-09T06:44:18;15.60;99.90
11489;DHT22;5801;50.804;12.638;2022-09-09T06:46:44;15.40;99.90
11489;DHT22;5801;50.804;12.638;2022-09-09T06:56:38;15.60;99.90
11489;DHT22;5801;50.804;12.638;2022-09-09T07:01:35;15.70;99.90
11489;DHT22;5801;50.804;12.638;2022-09-09T07:13:54;16.20;99.90
11489;DHT22;5801;50.804;12.638;2022-09-09T07:23:43;16.40;99.90
11489;DHT22;5801;50.804;12.638;2022-09-09T07:28:43;16.30;99.90
11489;DHT22;5801;50.804;12.638;2022-09-09T07:43:41;16.80;99.90
11489;DHT22;5801;50.804;12.638;2022-09-09T07:46:09;16.30;99.90
11489;DHT22;5801;50.804;12.638;2022-09-09T07:48:35;16.90;99.90
11489;DHT22;5801;50.804;12.638;2022-09-09T07:51:10;16.80;99.90
11489;DHT22;5801;50.804;12.638;2022-09-09T07:58:37;17.00;99.90
11489;DHT22;5801;50.804;12.638;2022-09-09T08:01:12;17.80;99.90
11489;DHT22;5801;50.804;12.638;2022-09-09T08:06:06;18.10;99.90
11489;DHT22;5801;50.804;12.638;2022-09-09T08:11:13;18.00;94.80
11489;DHT22;5801;50.804;12.638;2022-09-09T08:28:39;18.90;92.00
11489;DHT22;5801;50.804;12.638;2022-09-09T08:33:32;19.10;99.90
11489;DHT22;5801;50.804;12.638;2022-09-09T08:53:40;21.10;1.00
11489;DHT22;5801;50.804;12.638;2022-09-09T08:56:14;21.90;1.00
11489;DHT22;5801;50.804;12.638;2022-09-09T09:09:34;22.10;1.00
11489;DHT22;5801;50.804;12.638;2022-09-09T09:12:05;23.10;1.00
11489;DHT22;5801;50.804;12.638;2022-09-09T09:14:35;24.50;1.00
11489;DHT22;5801;50.804;12.638;2022-09-09T09:17:04;25.10;1.00
11489;DHT22;5801;50.804;12.638;2022-09-09T09:19:34;24.70;1.00
11489;DHT22;5801;50.804;12.638;2022-09-09T09:25:05;22.50;1.00
11489;DHT22;5801;50.804;12.638;2022-09-09T09:30:22;21.30;1.00
11489;DHT22;5801;50.804;12.638;2022-09-09T09:37:46;22.90;1.00
11489;DHT22;5801;50.804;12.638;2022-09-09T09:40:20;24.00;1.00
11489;DHT22;5801;50.804;12.638;2022-09-09T09:42:55;25.20;1.00
11489;DHT22;5801;50.804;12.638;2022-09-09T09:45:32;25.40;1.00
11489;DHT22;5801;50.804;12.638;2022-09-09T09:48:03;25.40;1.00
11489;DHT22;5801;50.804;12.638;2022-09-09T09:50:31;25.30;1.00
11489;DHT22;5801;50.804;12.638;2022-09-09T09:53:04;24.50;1.00
11489;DHT22;5801;50.804;12.638;2022-09-09T09:55:32;24.70;1.00
11489;DHT22;5801;50.804;12.638;2022-09-09T09:58:06;25.00;1.00
11489;DHT22;5801;50.804;12.638;2022-09-09T10:00:32;25.30;1.00
11489;DHT22;5801;50.804;12.638;2022-09-09T10:03:00;25.10;1.00
11489;DHT22;5801;50.804;12.638;2022-09-09T10:05:30;25.60;1.00
11489;DHT22;5801;50.804;12.638;2022-09-09T10:08:11;25.30;1.00
11489;DHT22;5801;50.804;12.638;2022-09-09T10:13:20;25.30;1.00
11489;DHT22;5801;50.804;12.638;2022-09-09T10:27:05;23.90;1.00
11489;DHT22;5801;50.804;12.638;2022-09-09T10:32:45;25.00;1.00
11489;DHT22;5801;50.804;12.638;2022-09-09T10:43:41;24.00;1.00
11489;DHT22;5801;50.804;12.638;2022-09-09T10:48:57;23.50;1.00
11489;DHT22;5801;50.804;12.638;2022-09-09T10:51:48;22.80;1.00
11489;DHT22;5801;50.804;12.638;2022-09-09T10:57:29;21.60;1.00
11489;DHT22;5801;50.804;12.638;2022-09-09T10:59:59;21.40;1.00
11489;DHT22;5801;50.804;12.638;2022-09-09T11:02:30;22.50;1.00
11489;DHT22;5801;50.804;12.638;2022-09-09T11:07:54;24.30;1.00
11489;DHT22;5801;50.804;12.638;2022-09-09T11:10:28;24.40;1.00
11489;DHT22;5801;50.804;12.638;2022-09-09T11:13:01;23.90;1.00
11489;DHT22;5801;50.804;12.638;2022-09-09T11:15:43;22.80;1.00
11489;DHT22;5801;50.804;12.638;2022-09-09T11:18:15;22.70;1.00
11489;DHT22;5801;50.804;12.638;2022-09-09T11:20:44;22.40;1.00
11489;DHT22;5801;50.804;12.638;2022-09-09T11:23:18;22.60;1.00
11489;DHT22;5801;50.804;12.638;2022-09-09T11:25:52;23.30;1.00
11489;DHT22;5801;50.804;12.638;2022-09-09T11:28:57;24.80;1.00
11489;DHT22;5801;50.804;12.638;2022-09-09T11:31:43;26.30;1.00
11489;DHT22;5801;50.804;12.638;2022-09-09T11:35:19;26.20;1.00
11489;DHT22;5801;50.804;12.638;2022-09-09T11:40:26;26.50;1.00
11489;DHT22;5801;50.804;12.638;2022-09-09T11:43:12;26.50;1.00
11489;DHT22;5801;50.804;12.638;2022-09-09T11:45:40;26.40;1.00
11489;DHT22;5801;50.804;12.638;2022-09-09T11:48:26;26.60;1.00
11489;DHT22;5801;50.804;12.638;2022-09-09T11:51:08;27.10;1.00
11489;DHT22;5801;50.804;12.638;2022-09-09T11:53:35;27.60;1.00
11489;DHT22;5801;50.804;12.638;2022-09-09T11:56:07;27.20;1.00
11489;DHT22;5801;50.804;12.638;2022-09-09T11:58:44;26.80;1.00
11489;DHT22;5801;50.804;12.638;2022-09-09T12:01:34;24.80;1.00
11489;DHT22;5801;50.804;12.638;2022-09-09T12:04:14;24.10;1.00
11489;DHT22;5801;50.804;12.638;2022-09-09T12:06:46;23.90;1.00
11489;DHT22;5801;50.804;12.638;2022-09-09T12:14:36;23.10;1.00
11489;DHT22;5801;50.804;12.638;2022-09-09T12:17:22;23.50;1.00
11489;DHT22;5801;50.804;12.638;2022-09-09T12:22:55;22.70;1.00
11489;DHT22;5801;50.804;12.638;2022-09-09T12:36:21;22.60;1.00
11489;DHT22;5801;50.804;12.638;2022-09-09T12:41:25;22.40;1.00
11489;DHT22;5801;50.804;12.638;2022-09-09T12:44:06;22.30;1.00
11489;DHT22;5801;50.804;12.638;2022-09-09T12:46:38;22.00;1.00
11489;DHT22;5801;50.804;12.638;2022-09-09T12:49:04;22.10;1.00
11489;DHT22;5801;50.804;12.638;2022-09-09T12:51:32;22.10;1.00
11489;DHT22;5801;50.804;12.638;2022-09-09T12:53:59;21.30;1.00
11489;DHT22;5801;50.804;12.638;2022-09-09T12:56:30;21.90;1.00
11489;DHT22;5801;50.804;12.638;2022-09-09T12:58:57;22.20;1.00
11489;DHT22;5801;50.804;12.638;2022-09-09T13:03:55;21.90;1.00
11489;DHT22;5801;50.804;12.638;2022-09-09T13:06:26;22.20;1.00
11489;DHT22;5801;50.804;12.638;2022-09-09T13:21:37;21.80;1.00
11489;DHT22;5801;50.804;12.638;2022-09-09T13:24:05;21.80;1.00
11489;DHT22;5801;50.804;12.638;2022-09-09T13:26:33;21.60;1.00
11489;DHT22;5801;50.804;12.638;2022-09-09T13:29:16;21.80;1.00
11489;DHT22;5801;50.804;12.638;2022-09-09T13:34:32;22.00;1.00
11489;DHT22;5801;50.804;12.638;2022-09-09T13:37:00;22.00;1.00
11489;DHT22;5801;50.804;12.638;2022-09-09T13:39:28;22.50;1.00
11489;DHT22;5801;50.804;12.638;2022-09-09T13:44:35;22.60;1.00
11489;DHT22;5801;50.804;12.638;2022-09-09T13:47:15;22.10;1.00
11489;DHT22;5801;50.804;12.638;2022-09-09T13:49:42;22.10;1.00
11489;DHT22;5801;50.804;12.638;2022-09-09T13:52:14;22.20;1.00
11489;DHT22;5801;50.804;12.638;2022-09-09T13:57:19;21.60;1.00
11489;DHT22;5801;50.804;12.638;2022-09-09T13:59:46;21.80;1.00
11489;DHT22;5801;50.804;12.638;2022-09-09T14:07:15;21.90;1.00
11489;DHT22;5801;50.804;12.638;2022-09-09T14:12:14;21.30;1.00
11489;DHT22;5801;50.804;12.638;2022-09-09T14:17:08;21.40;1.00
11489;DHT22;5801;50.804;12.638;2022-09-09T14:19:33;21.00;1.00
11489;DHT22;5801;50.804;12.638;2022-09-09T14:24:25;21.20;1.00
11489;DHT22;5801;50.804;12.638;2022-09-09T14:31:43;20.50;1.00
11489;DHT22;5801;50.804;12.638;2022-09-09T14:34:08;20.50;1.00
11489;DHT22;5801;50.804;12.638;2022-09-09T14:36:35;20.30;1.00
11489;DHT22;5801;50.804;12.638;2022-09-09T14:51:22;20.60;1.00
11489;DHT22;5801;50.804;12.638;2022-09-09T15:06:10;19.50;1.00
11489;DHT22;5801;50.804;12.638;2022-09-09T15:08:38;19.50;1.00
11489;DHT22;5801;50.804;12.638;2022-09-09T15:11:05;19.40;1.00
11489;DHT22;5801;50.804;12.638;2022-09-09T15:16:04;19.30;1.00
11489;DHT22;5801;50.804;12.638;2022-09-09T15:20:57;18.90;1.00
11489;DHT22;5801;50.804;12.638;2022-09-09T15:25:53;19.10;1.00
11489;DHT22;5801;50.804;12.638;2022-09-09T15:28:19;19.50;1.00
11489;DHT22;5801;50.804;12.638;2022-09-09T15:38:05;19.50;1.00
11489;DHT22;5801;50.804;12.638;2022-09-09T15:40:31;19.40;1.00
11489;DHT22;5801;50.804;12.638;2022-09-09T15:42:59;19.40;1.00
11489;DHT22;5801;50.804;12.638;2022-09-09T15:45:25;19.60;1.00
11489;DHT22;5801;50.804;12.638;2022-09-09T15:47:52;19.60;1.00
11489;DHT22;5801;50.804;12.638;2022-09-09T15:52:43;19.20;1.00
11489;DHT22;5801;50.804;12.638;2022-09-09T16:00:03;19.10;1.00
11489;DHT22;5801;50.804;12.638;2022-09-09T16:02:29;18.50;1.00
11489;DHT22;5801;50.804;12.638;2022-09-09T16:04:55;18.90;1.00
11489;DHT22;5801;50.804;12.638;2022-09-09T16:09:46;18.20;1.00
11489;DHT22;5801;50.804;12.638;2022-09-09T16:17:05;18.60;1.00
11489;DHT22;5801;50.804;12.638;2022-09-09T16:21:58;18.70;1.00
11489;DHT22;5801;50.804;12.638;2022-09-09T16:29:17;18.50;1.00
11489;DHT22;5801;50.804;12.638;2022-09-09T16:36:37;18.20;1.00
11489;DHT22;5801;50.804;12.638;2022-09-09T16:39:09;18.20;1.00
11489;DHT22;5801;50.804;12.638;2022-09-09T16:41:36;17.90;1.00
11489;DHT22;5801;50.804;12.638;2022-09-09T16:44:04;18.10;1.00
11489;DHT22;5801;50.804;12.638;2022-09-09T16:46:32;17.90;1.00
11489;DHT22;5801;50.804;12.638;2022-09-09T16:49:00;17.70;1.00
11489;DHT22;5801;50.804;12.638;2022-09-09T16:51:27;18.00;1.00
11489;DHT22;5801;50.804;12.638;2022-09-09T16:56:22;17.80;1.00
11489;DHT22;5801;50.804;12.638;2022-09-09T16:58:54;18.10;1.00
11489;DHT22;5801;50.804;12.638;2022-09-09T17:21:03;17.50;1.00
11489;DHT22;5801;50.804;12.638;2022-09-09T17:28:25;17.30;1.00
11489;DHT22;5801;50.804;12.638;2022-09-09T17:30:58;17.30;1.00
11489;DHT22;5801;50.804;12.638;2022-09-09T17:33:27;16.70;1.00
11489;DHT22;5801;50.804;12.638;2022-09-09T17:38:19;17.60;1.00
11489;DHT22;5801;50.804;12.638;2022-09-09T17:40:45;16.90;1.00
11489;DHT22;5801;50.804;12.638;2022-09-09T17:43:10;16.80;1.00
11489;DHT22;5801;50.804;12.638;2022-09-09T17:50:29;17.20;1.00
11489;DHT22;5801;50.804;12.638;2022-09-09T18:10:01;16.40;11.80
11489;DHT22;5801;50.804;12.638;2022-09-09T18:19:46;15.90;21.30
11489;DHT22;5801;50.804;12.638;2022-09-09T18:24:37;15.90;23.50
11489;DHT22;5801;50.804;12.638;2022-09-09T18:41:46;15.90;34.60
11489;DHT22;5801;50.804;12.638;2022-09-09T18:56:34;16.00;97.10
11489;DHT22;5801;50.804;12.638;2022-09-09T18:59:02;15.80;91.80
11489;DHT22;5801;50.804;12.638;2022-09-09T19:01:29;15.50;99.90
11489;DHT22;5801;50.804;12.638;2022-09-09T19:06:24;15.60;93.20
11489;DHT22;5801;50.804;12.638;2022-09-09T19:18:38;15.40;99.90
11489;DHT22;5801;50.804;12.638;2022-09-09T19:28:32;15.50;93.00
11489;DHT22;5801;50.804;12.638;2022-09-09T19:33:28;15.10;96.70
11489;DHT22;5801;50.804;12.638;2022-09-09T19:36:03;15.40;60.60
11489;DHT22;5801;50.804;12.638;2022-09-09T19:40:55;15.40;87.40
11489;DHT22;5801;50.804;12.638;2022-09-09T19:45:59;15.50;62.10
11489;DHT22;5801;50.804;12.638;2022-09-09T19:50:53;15.40;91.20
11489;DHT22;5801;50.804;12.638;2022-09-09T19:53:20;15.50;85.20
11489;DHT22;5801;50.804;12.638;2022-09-09T20:05:33;14.60;99.90
11489;DHT22;5801;50.804;12.638;2022-09-09T20:07:58;14.60;99.90
11489;DHT22;5801;50.804;12.638;2022-09-09T20:22:34;15.40;99.90
11489;DHT22;5801;50.804;12.638;2022-09-09T20:25:00;15.00;99.90
11489;DHT22;5801;50.804;12.638;2022-09-09T20:29:52;14.90;99.90
11489;DHT22;5801;50.804;12.638;2022-09-09T20:32:18;15.00;99.90
11489;DHT22;5801;50.804;12.638;2022-09-09T20:42:04;15.20;97.60
11489;DHT22;5801;50.804;12.638;2022-09-09T20:44:30;15.00;99.90
11489;DHT22;5801;50.804;12.638;2022-09-09T20:46:55;15.00;99.90
11489;DHT22;5801;50.804;12.638;2022-09-09T20:51:51;15.20;99.90
11489;DHT22;5801;50.804;12.638;2022-09-09T20:54:22;15.20;99.90
11489;DHT22;5801;50.804;12.638;2022-09-09T20:59:18;15.20;99.90
11489;DHT22;5801;50.804;12.638;2022-09-09T21:16:23;15.30;99.90
11489;DHT22;5801;50.804;12.638;2022-09-09T21:18:49;15.40;99.90
11489;DHT22;5801;50.804;12.638;2022-09-09T21:21:16;15.10;99.90
11489;DHT22;5801;50.804;12.638;2022-09-09T21:38:26;14.60;99.90
11489;DHT22;5801;50.804;12.638;2022-09-09T21:43:19;15.10;99.90
11489;DHT22;5801;50.804;12.638;2022-09-09T21:45:45;14.70;99.90
11489;DHT22;5801;50.804;12.638;2022-09-09T21:50:43;14.90;99.90
11489;DHT22;5801;50.804;12.638;2022-09-09T21:58:09;14.50;99.90
11489;DHT22;5801;50.804;12.638;2022-09-09T22:07:55;15.00;99.90
11489;DHT22;5801;50.804;12.638;2022-09-09T22:10:21;14.30;99.90
11489;DHT22;5801;50.804;12.638;2022-09-09T22:20:06;13.60;99.90
11489;DHT22;5801;50.804;12.638;2022-09-09T22:27:24;14.00;99.90
11489;DHT22;5801;50.804;12.638;2022-09-09T22:32:15;14.50;99.90
11489;DHT22;5801;50.804;12.638;2022-09-09T22:37:07;14.10;99.90
11489;DHT22;5801;50.804;12.638;2022-09-09T22:44:25;14.10;99.90
11489;DHT22;5801;50.804;12.638;2022-09-09T22:54:10;13.60;99.90
11489;DHT22;5801;50.804;12.638;2022-09-09T22:56:35;14.20;99.90
11489;DHT22;5801;50.804;12.638;2022-09-09T23:03:54;13.70;99.90
11489;DHT22;5801;50.804;12.638;2022-09-09T23:28:45;13.70;99.90
11489;DHT22;5801;50.804;12.638;2022-09-09T23:31:13;13.70;99.90
11489;DHT22;5801;50.804;12.638;2022-09-09T23:50:54;13.80;99.90
